Aeroporto :
LOGIN :

Iscrizione | Disclaimer

   EN    FR    IT 

 










Sommario :    VFR   VFR Marginale   IFR   IFR Intensivo   IFR Molto Intensivo
Visibilità : 
Base nubi : 
>= 8 km
>= 3000ft
5 / 8 km
1000 / 3000 ft
1500m / 5 km
500 / 1000 ft
800 / 1500m
200 / 500 ft
< 800m
< 200 ft
Simboli :   Temporali  Nebbia  Neve Forte  Precipitazioni Forti  Vento > 20 kt
SIGMETs :   Varie  Temporali  Ghiacco  Turbolenza  Onda orograficha  Ceneri Vulcaniche






- Altitudine del aeroporto : 0 ft
- Codice IATA : QFR


LIRH - Frosinone Military

ULTIMO METAR :
  • 121055Z 01002KT 5000 -RA BR FEW010 SCT030 14/11 Q0994 RMK OVC OVC070 MON LIB NC VIS MIN 5000 WIND THR16 /////KT WHT

METARs OBSOLETI :
  • 120955Z 20003KT 5000 -RA BR FEW010 SCT030 13/10 Q0994 RMK OVC BKN070 MON LIB NC VIS MIN 5000 WIND THR16 /////KT WHT
  • 120855Z 20002KT 8000 SCT030 13/10 Q0995 RMK OVC OVC080 MON LIB VAR RAPID VIS MIN 8000 WIND THR16 /////KT BLU

TAF TAF LIRH
Valido dal 12 a 09 ore il 12 a 18 ore UTC


120800Z 1209/1218 13006KT 6000 SCT025
TEMPO 1212/1216 14015KT 2000 TSRA FEW020CB BKN025



MetMap, La meteo Aeronautica in un colpo d'occhio ! - Copyright ORBIFLY Dicembre 2007 - Disclaimer

ORBIFLY MET'MAP TEAM :

Programmazione e sviluppo : Alexandra Zaïnal
Concezione e sviluppo : Baudouin d'Aumeries
Co-Programmazione e sviluppo : Marc-Olivier Méhu
Supporto tecnico e logistico : Manuel Goepfert
Aiuto per la traduzione : Arnaldo La Scala

Contatto : metmap@orbifly.com




FONTI E CREDITI :

   NOAA